Time;durP1;ratioP1;P1;durP2;ratioP2;P2;SDS_P1;SDS_P2;PMS_P1;PMS_P2;Temp;Humidity;BMP_temperature;BMP_pressure;BME280_temperature;BME280_humidity;BME280_pressure;Samples;Min_cycle;Max_cycle;Signal;HPM_P1;HPM_P2
2022/09/05 00:01:38;;;;;;;3.35;1.50;;;;;;;19.03;56.42;101904.00;5056149;27;96754;-30
2022/09/05 00:04:19;;;;;;;3.75;2.00;;;;;;;19.03;56.73;101905.88;5037832;27;96817;-29
2022/09/05 00:06:52;;;;;;;3.25;1.77;;;;;;;18.97;56.62;101917.34;5036909;27;101071;-31
2022/09/05 00:09:42;;;;;;;2.95;1.85;;;;;;;18.93;57.08;101914.00;5035877;27;99410;-31
2022/09/05 00:12:10;;;;;;;3.67;1.58;;;;;;;18.91;56.49;101907.75;5054444;27;96834;-29
2022/09/05 00:14:49;;;;;;;3.55;1.80;;;;;;;18.91;57.09;101910.50;5037042;27;96835;-30
2022/09/05 00:17:36;;;;;;;2.67;1.48;;;;;;;18.91;57.16;101904.13;5036821;27;100993;-30
2022/09/05 00:20:20;;;;;;;3.08;1.55;;;;;;;18.85;57.54;101908.22;5036655;27;100917;-29
2022/09/05 00:23:12;;;;;;;2.95;1.85;;;;;;;18.83;57.44;101901.97;5037270;27;96778;-31
2022/09/05 00:26:09;;;;;;;2.95;1.65;;;;;;;18.84;57.39;101903.75;5036775;27;96896;-31
2022/09/05 00:28:56;;;;;;;2.33;1.70;;;;;;;18.82;56.87;101898.38;5054704;27;99510;-29
2022/09/05 00:31:41;;;;;;;2.22;1.50;;;;;;;18.80;57.20;101899.47;5055592;27;97555;-30
2022/09/05 00:34:40;;;;;;;3.88;1.63;;;;;;;18.81;57.21;101902.13;5055597;27;96612;-31
2022/09/05 00:37:09;;;;;;;3.58;1.25;;;;;;;18.78;56.22;101899.63;5055435;27;96647;-29
2022/09/05 00:39:40;;;;;;;3.47;1.27;;;;;;;18.79;56.26;101889.50;5054516;27;97570;-29
2022/09/05 00:42:14;;;;;;;2.78;1.50;;;;;;;18.78;56.59;101888.66;5036574;27;99238;-29
2022/09/05 00:44:52;;;;;;;2.95;1.67;;;;;;;18.81;56.16;101895.75;5036812;27;96589;-30
2022/09/05 00:47:22;;;;;;;6.00;2.03;;;;;;;18.82;56.04;101895.63;5036602;27;96830;-29
2022/09/05 00:49:53;;;;;;;3.25;1.63;;;;;;;18.82;56.04;101884.63;5054581;27;99652;-31
2022/09/05 00:52:36;;;;;;;2.30;1.50;;;;;;;18.84;57.44;101890.03;5036316;27;101122;-29
2022/09/05 00:55:11;;;;;;;2.58;1.63;;;;;;;18.82;56.04;101889.25;5036696;27;96561;-30
2022/09/05 00:57:59;;;;;;;3.03;1.80;;;;;;;18.81;56.22;101891.13;5055342;27;96605;-29
2022/09/05 01:00:49;;;;;;;3.45;1.73;;;;;;;18.79;56.77;101884.03;5053218;27;101550;-29
2022/09/05 01:03:33;;;;;;;3.67;1.77;;;;;;;18.78;57.40;101883.16;5036278;27;99616;-30
2022/09/05 01:06:19;;;;;;;3.92;2.17;;;;;;;18.79;57.94;101889.50;5054290;27;96586;-29
2022/09/05 01:09:00;;;;;;;4.15;2.10;;;;;;;18.77;57.02;101888.75;5054623;27;96699;-30
2022/09/05 01:11:58;;;;;;;5.10;2.03;;;;;;;18.78;57.02;101885.91;5054047;27;99901;-30
2022/09/05 01:14:53;;;;;;;2.50;1.67;;;;;;;18.79;57.34;101895.00;5054686;27;97280;-30
2022/09/05 01:17:27;;;;;;;3.88;1.95;;;;;;;18.74;56.94;101884.34;5036378;27;96606;-30
2022/09/05 01:20:24;;;;;;;3.13;1.88;;;;;;;18.77;57.87;101894.25;5055902;27;96531;-30
2022/09/05 01:23:08;;;;;;;3.15;1.75;;;;;;;18.76;57.41;101901.63;5039554;27;101162;-29
2022/09/05 01:26:01;;;;;;;4.28;1.73;;;;;;;18.75;58.04;101890.72;5039863;27;101198;-30
2022/09/05 01:28:46;;;;;;;3.88;1.98;;;;;;;18.73;57.98;101888.06;5058204;27;96490;-29
2022/09/05 01:31:31;;;;;;;4.40;1.98;;;;;;;18.73;57.41;101895.44;5039902;27;96856;-29
2022/09/05 01:34:25;;;;;;;4.38;1.95;;;;;;;18.69;57.95;101883.84;5039046;27;100871;-29
2022/09/05 01:37:01;;;;;;;4.20;2.08;;;;;;;18.65;58.01;101885.94;5057844;27;98432;-29
2022/09/05 01:39:57;;;;;;;2.97;1.75;;;;;;;18.67;58.54;101883.09;5056322;27;96699;-30
2022/09/05 01:42:37;;;;;;;2.45;1.65;;;;;;;18.66;57.76;101887.72;5056600;27;96782;-30
2022/09/05 01:45:23;;;;;;;3.25;1.90;;;;;;;18.63;58.56;101879.69;5039422;27;101251;-31
2022/09/05 01:47:48;;;;;;;3.40;2.10;;;;;;;18.62;57.72;101883.47;5056941;27;104881;-30
2022/09/05 01:50:34;;;;;;;2.63;1.80;;;;;;;18.60;58.94;101870.84;5057874;27;97126;-29
2022/09/05 01:53:14;;;;;;;4.40;2.20;;;;;;;18.59;58.67;101880.06;5039880;27;96821;-29
2022/09/05 01:56:16;;;;;;;2.88;2.00;;;;;;;18.56;58.63;101888.56;5039166;27;98869;-29
2022/09/05 01:59:07;;;;;;;2.93;1.57;;;;;;;18.53;59.31;101878.69;5039364;27;100833;-32
2022/09/05 02:01:38;;;;;;;5.78;1.92;;;;;;;18.52;58.56;101878.81;5057309;27;96586;-32
2022/09/05 02:04:15;;;;;;;4.57;2.20;;;;;;;18.53;58.12;101884.19;5058092;27;96649;-30
2022/09/05 02:07:04;;;;;;;3.45;1.83;;;;;;;18.52;58.43;101882.44;5057267;27;98024;-29
2022/09/05 02:10:00;;;;;;;3.88;1.98;;;;;;;18.51;58.81;101888.91;5038919;27;100747;-29
2022/09/05 02:12:46;;;;;;;2.58;1.73;;;;;;;18.46;58.85;101889.28;5056831;27;99667;-29
2022/09/05 02:15:20;;;;;;;4.03;2.17;;;;;;;18.43;59.83;101888.66;5039252;27;96625;-29
2022/09/05 02:18:17;;;;;;;5.82;2.20;;;;;;;18.48;58.98;101888.28;5038339;27;100882;-29
2022/09/05 02:20:49;;;;;;;3.33;1.90;;;;;;;18.43;59.25;101880.41;5037729;27;101032;-31
2022/09/05 02:23:18;;;;;;;4.35;2.08;;;;;;;18.44;59.32;101888.50;5038778;27;96696;-30
2022/09/05 02:26:08;;;;;;;3.03;1.92;;;;;;;18.45;59.68;101883.91;5038940;27;96965;-29
2022/09/05 02:28:46;;;;;;;2.75;1.75;;;;;;;18.43;58.60;101892.25;5056392;27;99799;-29
2022/09/05 02:31:19;;;;;;;4.38;2.17;;;;;;;18.43;59.03;101888.66;5056047;27;97825;-30
2022/09/05 02:33:56;;;;;;;4.20;2.20;;;;;;;18.38;59.26;101888.13;5038773;27;96708;-30
2022/09/05 02:36:28;;;;;;;3.28;2.03;;;;;;;18.36;58.94;101890.13;5038948;27;96719;-29
2022/09/05 02:39:07;;;;;;;3.38;2.33;;;;;;;18.35;59.32;101881.03;5055369;27;101588;-29
2022/09/05 02:41:47;;;;;;;3.45;2.13;;;;;;;18.37;59.55;101891.84;5055192;27;101375;-31
2022/09/05 02:44:29;;;;;;;3.25;1.92;;;;;;;18.36;59.63;101901.09;5056924;27;96472;-31
2022/09/05 02:47:07;;;;;;;2.78;1.77;;;;;;;18.32;59.70;101891.34;5039037;27;96778;-33
2022/09/05 02:50:10;;;;;;;6.95;2.28;;;;;;;18.32;60.33;101894.09;5038292;27;100755;-29
2022/09/05 02:52:40;;;;;;;4.20;2.47;;;;;;;18.29;60.51;101891.59;5056728;27;97311;-29
2022/09/05 02:55:14;;;;;;;5.53;2.22;;;;;;;18.27;59.44;101893.56;5037948;27;96632;-29
2022/09/05 02:58:12;;;;;;;4.95;2.17;;;;;;;18.27;60.57;101901.81;5038503;27;96787;-30
2022/09/05 03:00:55;;;;;;;4.68;2.10;;;;;;;18.21;60.22;101889.41;5027521;27;98138;-30
2022/09/05 03:03:45;;;;;;;3.38;2.15;;;;;;;18.22;60.31;101888.44;5038135;27;101448;-29
2022/09/05 03:06:30;;;;;;;3.38;2.05;;;;;;;18.20;60.22;101888.56;5038364;27;96762;-29
2022/09/05 03:09:27;;;;;;;5.68;2.00;;;;;;;18.16;60.49;101884.31;5038114;27;96826;-29
2022/09/05 03:12:16;;;;;;;3.92;2.30;;;;;;;18.17;60.83;101877.84;5056053;27;97226;-29
2022/09/05 03:15:08;;;;;;;4.15;2.33;;;;;;;18.14;59.53;101889.03;5056454;27;99227;-30
2022/09/05 03:17:55;;;;;;;3.93;2.30;;;;;;;18.14;59.83;101890.88;5023972;27;96815;-30
2022/09/05 03:20:32;;;;;;;4.93;2.30;;;;;;;18.14;60.87;101890.88;5056326;27;96636;-29
2022/09/05 03:23:34;;;;;;;4.22;2.50;;;;;;;18.12;61.09;101888.28;5055736;27;97491;-30
2022/09/05 03:26:42;;;;;;;4.10;2.42;;;;;;;18.11;60.66;101885.66;5055789;27;98772;-31
2022/09/05 03:29:51;;;;;;;2.63;1.80;;;;;;;18.09;61.06;101883.03;5056202;27;96803;-29
2022/09/05 03:32:22;;;;;;;4.10;2.35;;;;;;;18.07;60.21;101879.53;5056372;27;96763;-29
2022/09/05 03:35:27;;;;;;;5.17;2.30;;;;;;;18.04;61.73;101879.75;5056167;27;98007;-29
2022/09/05 03:38:13;;;;;;;7.50;2.65;;;;;;;18.03;61.63;101878.03;5055684;27;99874;-29
2022/09/05 03:40:38;;;;;;;3.13;2.03;;;;;;;18.01;60.60;101880.00;5054658;27;96816;-29
2022/09/05 03:43:51;;;;;;;5.60;2.60;;;;;;;18.00;61.52;101881.00;5055966;27;96900;-29
2022/09/05 03:46:25;;;;;;;4.50;2.10;;;;;;;17.96;61.15;101887.69;5055521;27;100118;-30
2022/09/05 03:48:55;;;;;;;3.50;2.08;;;;;;;17.96;61.01;101882.22;5037403;27;101105;-30
2022/09/05 03:51:49;;;;;;;5.97;2.30;;;;;;;17.94;61.37;101885.06;5055243;27;96615;-29
2022/09/05 03:54:14;;;;;;;3.97;2.15;;;;;;;17.93;61.15;101886.06;5023303;27;96749;-29
2022/09/05 03:57:10;;;;;;;4.57;2.50;;;;;;;17.95;61.26;101885.97;5055638;27;97610;-29
2022/09/05 03:59:54;;;;;;;4.10;2.20;;;;;;;17.92;60.60;101886.19;5055471;27;97345;-29
2022/09/05 04:02:29;;;;;;;5.05;2.42;;;;;;;17.90;60.90;101886.31;5056002;27;96510;-29
2022/09/05 04:05:01;;;;;;;9.00;2.85;;;;;;;17.89;60.92;101883.69;5037414;27;96741;-29
2022/09/05 04:07:54;;;;;;;3.95;2.45;;;;;;;17.88;61.69;101881.94;5053881;27;100668;-29
2022/09/05 04:10:35;;;;;;;4.55;2.40;;;;;;;17.86;61.60;101886.66;5055966;27;97250;-30
2022/09/05 04:13:06;;;;;;;3.25;2.20;;;;;;;17.83;61.32;101879.56;5021477;28;96790;-29
2022/09/05 04:15:46;;;;;;;5.95;2.67;;;;;;;17.84;61.33;101881.28;5013704;28;96633;-29
2022/09/05 04:18:17;;;;;;;3.97;2.58;;;;;;;17.83;62.01;101871.31;5012700;28;100961;-29
2022/09/05 04:20:49;;;;;;;4.60;2.38;;;;;;;17.81;61.87;101887.88;5014953;28;97397;-29
2022/09/05 04:23:34;;;;;;;5.70;2.28;;;;;;;17.81;62.43;101868.69;5013809;28;96794;-29
2022/09/05 04:26:18;;;;;;;4.82;3.03;;;;;;;17.81;62.73;101879.66;5013673;28;96872;-30
2022/09/05 04:29:08;;;;;;;4.60;2.53;;;;;;;17.79;61.73;101876.13;5013240;28;101697;-29
2022/09/05 04:31:38;;;;;;;6.80;2.75;;;;;;;17.80;61.50;101874.25;5014540;28;99320;-29
2022/09/05 04:34:16;;;;;;;4.22;2.45;;;;;;;17.77;61.83;101878.09;5013475;28;96569;-31
2022/09/05 04:36:44;;;;;;;4.78;2.35;;;;;;;17.77;61.43;101879.97;5013853;28;96797;-30
2022/09/05 04:39:18;;;;;;;5.53;2.88;;;;;;;17.76;62.35;101881.84;5012921;28;101171;-30
2022/09/05 04:41:57;;;;;;;6.03;2.20;;;;;;;17.75;62.67;101879.22;5014605;28;97991;-29
2022/09/05 04:44:32;;;;;;;4.18;2.15;;;;;;;17.77;62.35;101890.94;5012908;28;96543;-32
2022/09/05 04:47:15;;;;;;;4.95;2.63;;;;;;;17.73;61.85;101886.66;5014713;28;96796;-29
2022/09/05 04:49:45;;;;;;;4.85;2.65;;;;;;;17.71;62.59;101885.91;5013061;28;101307;-30
2022/09/05 04:52:37;;;;;;;5.88;2.97;;;;;;;17.68;62.59;101892.47;5013092;28;100861;-30
2022/09/05 04:55:11;;;;;;;6.50;2.80;;;;;;;17.68;62.29;101894.34;5014741;28;96662;-30
2022/09/05 04:57:53;;;;;;;4.72;2.58;;;;;;;17.67;63.04;101903.59;5016898;28;96843;-29
2022/09/05 05:00:24;;;;;;;5.38;2.72;;;;;;;17.65;62.62;101906.44;5017957;28;98507;-29
2022/09/05 05:03:11;;;;;;;3.57;2.47;;;;;;;17.64;62.62;101907.44;5016763;28;101222;-31
2022/09/05 05:05:59;;;;;;;4.22;2.50;;;;;;;17.67;63.05;101909.06;5016565;28;96828;-29
2022/09/05 05:08:32;;;;;;;4.55;2.55;;;;;;;17.65;63.29;101900.94;5010681;28;97015;-29
2022/09/05 05:11:07;;;;;;;6.40;2.80;;;;;;;17.61;62.44;101905.78;5015967;28;100990;-29
2022/09/05 05:13:45;;;;;;;5.85;3.20;;;;;;;17.63;63.22;101901.03;5015717;28;100966;-29
2022/09/05 05:16:20;;;;;;;4.63;2.63;;;;;;;17.63;63.20;101894.69;5016589;28;96660;-28
2022/09/05 05:18:53;;;;;;;5.45;2.85;;;;;;;17.62;62.68;101899.31;5016339;28;97049;-29
2022/09/05 05:21:21;;;;;;;6.68;2.90;;;;;;;17.63;62.73;101901.03;5016182;28;101214;-30
2022/09/05 05:23:51;;;;;;;5.88;3.13;;;;;;;17.65;62.30;101900.94;5015986;28;100920;-29
2022/09/05 05:26:23;;;;;;;6.85;2.78;;;;;;;17.64;62.83;101901.94;5016417;28;96590;-29
2022/09/05 05:29:14;;;;;;;4.65;2.63;;;;;;;17.63;63.31;101902.91;5016632;28;96848;-29
2022/09/05 05:31:47;;;;;;;5.45;2.67;;;;;;;17.66;63.05;101908.16;5016008;28;100861;-29
2022/09/05 05:34:22;;;;;;;7.95;2.83;;;;;;;17.67;62.42;101904.44;5016044;28;100466;-29
2022/09/05 05:37:37;;;;;;;6.93;3.15;;;;;;;17.71;62.74;101905.97;5015605;28;96827;-31
2022/09/05 05:40:09;;;;;;;8.82;2.72;;;;;;;17.75;62.37;101906.59;5017082;28;96747;-29
2022/09/05 05:42:37;;;;;;;5.78;2.78;;;;;;;17.79;62.09;101913.63;5015678;28;100730;-29
2022/09/05 05:45:06;;;;;;;5.30;2.55;;;;;;;17.79;62.38;101908.13;5014490;28;100773;-30
2022/09/05 05:47:41;;;;;;;5.88;2.75;;;;;;;17.83;62.65;101912.44;5016042;28;96591;-29
2022/09/05 05:50:28;;;;;;;6.28;2.75;;;;;;;17.86;62.69;101920.44;5015722;28;96735;-29
2022/09/05 05:53:36;;;;;;;5.68;2.97;;;;;;;17.88;63.44;101912.09;5014141;28;101024;-30
2022/09/05 05:56:07;;;;;;;4.97;2.88;;;;;;;17.93;62.51;101920.84;5017005;28;97350;-31
2022/09/05 05:58:54;;;;;;;4.38;2.80;;;;;;;17.96;62.76;101920.59;5017144;28;96698;-30
2022/09/05 06:01:32;;;;;;;4.97;2.90;;;;;;;17.98;61.67;101922.22;5015783;28;96812;-30
2022/09/05 06:04:12;;;;;;;6.63;2.92;;;;;;;18.03;61.86;101930.13;5014748;28;100958;-29
2022/09/05 06:06:46;;;;;;;4.57;2.78;;;;;;;18.08;61.99;101925.16;5016774;28;98828;-29
2022/09/05 06:09:48;;;;;;;5.43;2.92;;;;;;;18.12;62.10;101918.44;5017219;28;96748;-29
2022/09/05 06:12:35;;;;;;;6.65;2.90;;;;;;;18.19;63.01;101927.09;5022834;27;96968;-29
2022/09/05 06:15:24;;;;;;;3.85;2.33;;;;;;;18.21;62.00;101917.75;5038814;27;100925;-29
2022/09/05 06:18:19;;;;;;;5.63;2.88;;;;;;;18.34;61.73;101925.03;5055605;27;98813;-30
2022/09/05 06:21:36;;;;;;;5.20;2.65;;;;;;;18.43;62.04;101916.94;5057330;27;96607;-32
2022/09/05 06:24:25;;;;;;;4.80;2.78;;;;;;;18.57;61.28;101929.59;5001056;27;96881;-29
2022/09/05 06:27:14;;;;;;;6.60;3.22;;;;;;;18.68;61.45;101932.34;5056731;27;99713;-29
2022/09/05 06:30:06;;;;;;;4.85;2.97;;;;;;;18.74;61.08;101924.66;5038433;27;101027;-29
2022/09/05 06:33:41;;;;;;;5.35;2.75;;;;;;;18.78;61.85;101927.06;5038510;27;96636;-29
2022/09/05 06:36:10;;;;;;;4.68;2.85;;;;;;;18.86;61.88;101926.47;4974957;28;97144;-30
2022/09/05 06:39:10;;;;;;;5.80;3.38;;;;;;;18.91;61.58;101926.97;4957801;28;101541;-32
2022/09/05 06:42:03;;;;;;;7.43;3.03;;;;;;;19.02;61.66;101931.59;5050516;27;99839;-29
2022/09/05 06:44:46;;;;;;;6.28;2.60;;;;;;;19.08;60.58;101926.47;5056884;27;96571;-30
2022/09/05 06:47:17;;;;;;;7.53;3.03;;;;;;;19.23;60.31;101935.34;5055630;27;96720;-29
2022/09/05 06:50:18;;;;;;;7.33;3.33;;;;;;;19.35;60.28;101927.13;5055436;27;98406;-29
2022/09/05 06:52:43;;;;;;;5.88;3.00;;;;;;;19.55;59.56;101931.00;5057052;27;97285;-30
2022/09/05 06:55:36;;;;;;;5.50;3.08;;;;;;;19.67;60.17;101933.59;5056722;27;96597;-31
2022/09/05 06:58:40;;;;;;;5.47;3.30;;;;;;;19.85;59.33;101942.19;5038479;27;96732;-28
2022/09/05 07:01:07;;;;;;;6.50;3.17;;;;;;;20.03;58.82;101944.44;5055540;27;99461;-29
2022/09/05 07:04:08;;;;;;;6.45;3.45;;;;;;;20.20;58.76;101945.75;5038096;27;102011;-30
2022/09/05 07:07:00;;;;;;;5.18;2.63;;;;;;;20.43;58.49;101947.41;5038041;27;97059;-30
2022/09/05 07:09:28;;;;;;;;;;;;;;;20.68;58.59;101951.69;5056969;27;96671;-29
2022/09/05 07:12:12;;;;;;;4.90;2.47;;;;;;;21.02;57.04;101948.72;5056120;27;97743;-31
2022/09/05 07:15:07;;;;;;;5.40;2.97;;;;;;;21.48;56.88;101955.69;5037933;27;99025;-29
2022/09/05 07:17:45;;;;;;;9.57;2.85;;;;;;;21.73;55.84;101953.44;5011076;27;96813;-29
2022/09/05 07:20:22;;;;;;;5.07;2.85;;;;;;;21.93;55.12;101949.75;5038569;27;96744;-29
2022/09/05 07:22:48;;;;;;;4.10;2.33;;;;;;;22.09;54.94;101949.16;5056006;27;99485;-30
2022/09/05 07:25:18;;;;;;;6.32;2.65;;;;;;;22.18;54.93;101959.34;5055548;27;98766;-29
2022/09/05 07:27:50;;;;;;;3.67;2.40;;;;;;;22.18;54.61;101964.88;5037467;27;96788;-29
2022/09/05 07:30:19;;;;;;;5.50;2.20;;;;;;;22.03;54.64;101961.66;5037945;27;96767;-29
2022/09/05 07:32:50;;;;;;;3.90;2.35;;;;;;;21.92;55.23;101964.53;5037463;27;100667;-29
2022/09/05 07:35:24;;;;;;;5.95;2.30;;;;;;;21.82;55.28;101974.69;5037429;27;100773;-29
2022/09/05 07:38:00;;;;;;;5.80;1.90;;;;;;;21.68;55.52;101969.56;5037865;27;96499;-29
2022/09/05 07:40:28;;;;;;;4.03;1.75;;;;;;;21.62;55.69;101971.00;5037797;27;96756;-29
2022/09/05 07:43:16;;;;;;;3.35;1.75;;;;;;;21.58;55.55;101975.03;5037379;27;101635;-29
2022/09/05 07:46:13;;;;;;;2.65;1.63;;;;;;;21.58;56.21;101978.66;5037657;27;101031;-29
2022/09/05 07:49:13;;;;;;;3.78;1.75;;;;;;;21.56;56.02;101977.91;5037488;27;96471;-30
2022/09/05 07:51:50;;;;;;;6.05;1.80;;;;;;;21.56;56.03;101979.81;5029937;27;96867;-29
2022/09/05 07:54:28;;;;;;;2.20;1.40;;;;;;;21.53;55.61;101975.44;5036628;27;100985;-29
2022/09/05 07:57:02;;;;;;;3.42;1.73;;;;;;;21.59;55.54;101974.88;5055517;27;97900;-29
2022/09/05 07:59:32;;;;;;;2.30;1.60;;;;;;;21.71;55.71;101983.91;5056010;27;96589;-29
2022/09/05 08:01:59;;;;;;;2.85;1.67;;;;;;;21.77;55.13;101971.47;5037501;27;96908;-29
2022/09/05 08:04:28;;;;;;;1.95;1.45;;;;;;;21.98;54.74;101972.25;5037073;27;100931;-29
2022/09/05 08:06:56;;;;;;;3.92;2.00;;;;;;;22.23;53.86;101978.28;5036998;27;101252;-29
2022/09/05 08:09:31;;;;;;;3.00;1.55;;;;;;;22.54;53.81;101975.41;5055461;27;96689;-29
2022/09/05 08:12:10;;;;;;;3.72;1.75;;;;;;;22.85;53.37;101978.88;5037003;27;96973;-29
2022/09/05 08:15:00;;;;;;;2.78;1.70;;;;;;;23.10;52.90;101981.06;5055563;27;97972;-30
2022/09/05 08:17:25;;;;;;;6.00;2.10;;;;;;;23.34;51.76;101973.28;5055118;27;97454;-29
2022/09/05 08:20:20;;;;;;;2.15;1.30;;;;;;;23.53;51.35;101984.28;5054702;27;96717;-31
2022/09/05 08:22:57;;;;;;;3.67;1.67;;;;;;;23.82;50.91;101986.06;5055600;27;96572;-31
2022/09/05 08:25:46;;;;;;;5.25;1.55;;;;;;;24.02;50.36;101981.28;5036795;27;101255;-30
2022/09/05 08:28:38;;;;;;;3.10;1.60;;;;;;;24.22;49.74;101982.03;5022757;27;97780;-29
2022/09/05 08:31:13;;;;;;;2.85;1.67;;;;;;;24.37;49.14;101983.25;5036402;27;96658;-29
2022/09/05 08:33:40;;;;;;;1.52;1.20;;;;;;;24.51;48.70;101979.97;5037002;27;96803;-30
2022/09/05 08:36:16;;;;;;;1.80;1.05;;;;;;;24.69;48.61;101973.53;5036366;27;101110;-29
2022/09/05 08:38:43;;;;;;;3.70;1.50;;;;;;;24.75;46.90;101971.00;5037001;27;101186;-31
2022/09/05 08:41:24;;;;;;;3.25;1.60;;;;;;;24.77;47.59;101974.47;5036874;27;96619;-31
2022/09/05 08:44:08;;;;;;;4.32;1.25;;;;;;;24.87;48.55;101965.19;5037059;27;96753;-30
2022/09/05 08:46:54;;;;;;;1.80;1.15;;;;;;;24.92;46.17;101973.91;5054389;27;98088;-30
2022/09/05 08:49:38;;;;;;;4.35;1.55;;;;;;;24.95;46.31;101977.19;5035092;27;101125;-29
2022/09/05 08:52:13;;;;;;;2.42;1.10;;;;;;;25.01;45.54;101972.94;5036399;27;96705;-31
2022/09/05 08:54:47;;;;;;;1.88;1.30;;;;;;;24.99;45.18;101973.09;5036676;27;96769;-29
2022/09/05 08:57:19;;;;;;;2.05;1.25;;;;;;;25.02;43.78;101966.34;5036334;27;101404;-30
2022/09/05 09:00:03;;;;;;;5.85;1.67;;;;;;;25.15;45.17;101963.16;5036215;27;100777;-29
2022/09/05 09:02:44;;;;;;;3.35;1.35;;;;;;;25.29;45.25;101967.25;5036854;27;96601;-30
2022/09/05 09:05:29;;;;;;;7.85;1.70;;;;;;;25.29;45.50;101967.25;5055268;27;96897;-30
2022/09/05 09:08:15;;;;;;;2.53;1.40;;;;;;;25.31;44.24;101957.72;5054774;27;97425;-30
2022/09/05 09:10:56;;;;;;;2.85;1.38;;;;;;;25.49;44.55;101959.56;5054823;27;97974;-29
2022/09/05 09:14:09;;;;;;;1.65;1.23;;;;;;;25.56;42.35;101955.97;5053573;27;96491;-30
2022/09/05 09:16:52;;;;;;;1.95;1.00;;;;;;;25.63;43.87;101950.63;4963615;27;96874;-29
2022/09/05 09:19:24;;;;;;;1.98;1.15;;;;;;;25.84;44.53;101941.88;5039400;27;101463;-29
2022/09/05 09:22:07;;;;;;;2.75;0.98;;;;;;;26.00;43.11;101946.63;5035596;27;100938;-29
2022/09/05 09:25:20;;;;;;;1.92;1.15;;;;;;;26.26;42.46;101950.16;5036007;27;96762;-31
2022/09/05 09:28:10;;;;;;;1.83;1.15;;;;;;;26.51;42.29;101950.19;5017299;27;96763;-30
2022/09/05 09:30:44;;;;;;;2.40;1.10;;;;;;;26.71;42.57;101935.97;5054537;27;97545;-30
2022/09/05 09:33:19;;;;;;;3.10;1.05;;;;;;;26.97;42.04;101942.22;5036329;27;100914;-30
2022/09/05 09:35:58;;;;;;;2.13;1.25;;;;;;;27.26;41.87;101944.44;5036070;27;96714;-30
2022/09/05 09:38:53;;;;;;;3.92;1.13;;;;;;;27.29;39.45;101946.00;5035876;27;96752;-30
2022/09/05 09:41:36;;;;;;;2.53;1.40;;;;;;;27.28;39.78;101949.84;5036810;27;101042;-30
2022/09/05 09:44:21;;;;;;;2.20;1.08;;;;;;;27.31;39.70;101943.91;5057523;27;99755;-29
2022/09/05 09:46:49;;;;;;;1.70;1.15;;;;;;;27.16;41.19;101942.88;5057534;27;96748;-29
2022/09/05 09:49:45;;;;;;;2.63;1.05;;;;;;;27.03;39.94;101944.31;5057973;27;96781;-29
2022/09/05 09:52:20;;;;;;;1.15;1.00;;;;;;;26.87;41.41;101935.97;5057348;27;97628;-29
2022/09/05 09:55:23;;;;;;;1.52;1.10;;;;;;;26.68;40.65;101938.06;5057459;27;99217;-30
2022/09/05 09:57:55;;;;;;;2.97;1.10;;;;;;;26.66;42.15;101940.16;5058109;27;96487;-29
2022/09/05 10:00:22;;;;;;;5.78;1.45;;;;;;;26.59;40.29;101925.22;5039800;27;96800;-29
2022/09/05 10:03:18;;;;;;;4.47;1.38;;;;;;;26.59;41.59;101928.00;5038993;27;101065;-30
2022/09/05 10:06:11;;;;;;;2.00;1.08;;;;;;;26.67;40.32;101927.13;5057104;27;99828;-30
2022/09/05 10:09:12;;;;;;;3.05;1.30;;;;;;;26.83;41.11;101929.03;5057329;27;96553;-32
2022/09/05 10:11:56;;;;;;;1.00;0.75;;;;;;;26.97;41.27;101931.09;5057329;27;96867;-30
2022/09/05 10:14:59;;;;;;;1.30;1.08;;;;;;;27.06;39.81;101915.25;5038822;27;100926;-30
2022/09/05 10:17:33;;;;;;;3.35;1.25;;;;;;;27.24;41.15;101913.13;5038562;27;100993;-30
2022/09/05 10:20:15;;;;;;;3.25;1.05;;;;;;;27.45;39.59;101918.13;5039057;27;96588;-33
2022/09/05 10:22:58;;;;;;;1.50;0.98;;;;;;;27.63;40.45;101912.31;5057706;27;96526;-29
2022/09/05 10:25:46;;;;;;;2.17;1.30;;;;;;;27.66;40.51;101905.53;5038612;27;101213;-29
2022/09/05 10:28:28;;;;;;;3.05;1.20;;;;;;;27.80;39.93;101909.47;5057613;27;97848;-29
2022/09/05 10:31:13;;;;;;;5.25;1.10;;;;;;;28.01;39.45;101904.16;5039064;27;96532;-30
2022/09/05 10:34:09;;;;;;;4.38;1.30;;;;;;;28.06;40.15;101906.38;5039246;27;96803;-29
2022/09/05 10:36:37;;;;;;;6.57;1.30;;;;;;;28.04;39.01;101903.78;5056569;27;97560;-29
2022/09/05 10:39:16;;;;;;;2.70;1.30;;;;;;;27.99;39.17;101908.16;5056744;27;97834;-30
2022/09/05 10:41:51;;;;;;;3.15;1.10;;;;;;;27.87;39.30;101899.34;5038632;27;96574;-31
2022/09/05 10:44:27;;;;;;;2.33;1.00;;;;;;;27.83;39.54;101901.63;5038569;27;96801;-29
2022/09/05 10:47:04;;;;;;;3.72;1.15;;;;;;;28.10;37.66;101893.78;5038432;27;100825;-30
2022/09/05 10:49:36;;;;;;;3.95;1.50;;;;;;;28.53;38.69;101897.88;5038302;27;100755;-29
2022/09/05 10:52:15;;;;;;;1.52;1.10;;;;;;;28.92;36.77;101899.59;5037984;27;96621;-31
2022/09/05 10:55:00;;;;;;;3.55;1.55;;;;;;;29.05;36.60;101892.47;5057119;27;96663;-31
2022/09/05 10:57:44;;;;;;;3.03;1.10;;;;;;;29.26;36.69;101892.59;5038153;27;101274;-29
2022/09/05 11:00:51;;;;;;;2.72;1.17;;;;;;;29.67;36.59;101894.03;5038137;27;101148;-30
2022/09/05 11:03:22;;;;;;;3.55;1.27;;;;;;;29.61;35.92;101885.38;5037895;27;96740;-30
2022/09/05 11:05:55;;;;;;;;;;;;;;;29.55;34.58;101893.66;5038909;27;96719;-31
2022/09/05 11:08:44;;;;;;;1.63;1.00;;;;;;;29.59;36.16;101889.41;5056348;27;99709;-32
2022/09/05 11:11:23;;;;;;;2.72;1.27;;;;;;;29.74;34.26;101883.81;5038024;27;101202;-30
2022/09/05 11:13:50;;;;;;;3.28;1.20;;;;;;;29.81;35.82;101881.97;5038006;27;96857;-30
2022/09/05 11:16:41;;;;;;;3.63;1.33;;;;;;;30.17;34.41;101886.66;5038183;27;96866;-29
2022/09/05 11:19:27;;;;;;;1.83;0.90;;;;;;;30.26;32.69;101886.38;5056033;27;99402;-30
2022/09/05 11:22:05;;;;;;;1.67;1.00;;;;;;;30.30;32.97;101886.00;5038212;27;101029;-30
2022/09/05 11:24:43;;;;;;;1.13;0.88;;;;;;;30.52;34.34;101890.50;5038084;27;96795;-29
2022/09/05 11:27:33;;;;;;;1.95;1.00;;;;;;;30.58;32.69;101878.50;5038127;27;96796;-29
2022/09/05 11:30:06;;;;;;;2.13;1.00;;;;;;;30.58;31.19;101884.13;5055819;27;97922;-30
2022/09/05 11:33:14;;;;;;;2.30;0.90;;;;;;;30.71;32.26;101882.50;5037503;27;100889;-30
2022/09/05 11:35:56;;;;;;;1.35;0.93;;;;;;;30.97;32.30;101879.91;5045009;27;96902;-29
2022/09/05 11:38:58;;;;;;;3.92;1.10;;;;;;;31.01;31.21;101878.44;5037912;27;96896;-30
2022/09/05 11:41:29;;;;;;;1.08;0.75;;;;;;;31.19;31.82;101869.50;5055406;27;99411;-30
2022/09/05 11:44:13;;;;;;;1.38;0.90;;;;;;;31.28;31.87;101871.06;5037460;27;100947;-30
2022/09/05 11:46:44;;;;;;;1.58;0.98;;;;;;;31.37;30.72;101866.16;5056246;27;96621;-31
2022/09/05 11:49:29;;;;;;;;;;;;;;;31.44;29.92;101871.81;5038410;27;96889;-30
2022/09/05 11:51:54;;;;;;;1.83;1.00;;;;;;;31.40;32.27;101867.72;5055462;27;99451;-30
2022/09/05 11:54:41;;;;;;;1.97;0.93;;;;;;;31.60;31.12;101871.44;5055360;27;99484;-30
2022/09/05 11:57:37;;;;;;;2.47;1.10;;;;;;;31.68;31.17;101862.88;5037025;27;96586;-29
2022/09/05 12:00:31;;;;;;;2.80;0.88;;;;;;;31.68;30.61;101856.41;5055360;27;96787;-31
2022/09/05 12:03:33;;;;;;;1.80;0.90;;;;;;;31.70;30.00;101865.44;5037126;27;100924;-30
2022/09/05 12:06:11;;;;;;;3.65;1.02;;;;;;;31.77;30.87;101859.88;5055269;27;98738;-30
2022/09/05 12:08:48;;;;;;;1.88;1.10;;;;;;;31.92;29.40;101857.78;5055350;27;96777;-30
2022/09/05 12:11:13;;;;;;;2.30;1.00;;;;;;;31.77;31.10;101860.72;5037508;27;96835;-30
2022/09/05 12:14:05;;;;;;;2.30;1.30;;;;;;;31.84;30.37;101849.56;5054777;27;101435;-31
2022/09/05 12:16:42;;;;;;;2.45;1.20;;;;;;;32.01;31.02;101848.09;5037230;27;101151;-30
2022/09/05 12:19:38;;;;;;;2.28;0.90;;;;;;;31.97;29.87;101851.56;5037350;27;96665;-31
2022/09/05 12:22:23;;;;;;;3.10;1.00;;;;;;;32.05;30.86;101846.63;5055851;27;96565;-31
2022/09/05 12:25:07;;;;;;;1.25;0.80;;;;;;;32.09;31.18;101850.72;5036364;27;101027;-30
2022/09/05 12:27:37;;;;;;;3.05;1.10;;;;;;;32.05;29.25;101840.16;5055331;27;97890;-30
2022/09/05 12:30:06;;;;;;;1.85;1.10;;;;;;;32.11;29.91;101842.97;5036993;27;96601;-30
2022/09/05 12:32:32;;;;;;;2.97;1.38;;;;;;;32.23;30.85;101839.53;5036889;27;96845;-30
2022/09/05 12:35:01;;;;;;;1.75;1.13;;;;;;;32.32;30.01;101841.03;5036615;27;101035;-30